sensor_id;sensor_type;location;lat;lon;timestamp;temperature;humidity
420;DHT22;42600;54.408;13.016;2022-07-29T00:00:51;13.20;92.70
420;DHT22;42600;54.408;13.016;2022-07-29T00:03:19;13.20;92.70
420;DHT22;42600;54.408;13.016;2022-07-29T00:05:46;13.20;92.70
420;DHT22;42600;54.408;13.016;2022-07-29T00:08:14;13.20;92.70
420;DHT22;42600;54.408;13.016;2022-07-29T00:10:56;13.20;92.70
420;DHT22;42600;54.408;13.016;2022-07-29T00:13:40;13.20;92.70
420;DHT22;42600;54.408;13.016;2022-07-29T00:16:11;13.20;92.70
420;DHT22;42600;54.408;13.016;2022-07-29T00:18:42;13.20;92.70
420;DHT22;42600;54.408;13.016;2022-07-29T00:21:09;13.20;92.70
420;DHT22;42600;54.408;13.016;2022-07-29T00:23:36;13.30;92.70
420;DHT22;42600;54.408;13.016;2022-07-29T00:26:04;13.30;92.70
420;DHT22;42600;54.408;13.016;2022-07-29T00:28:31;13.30;92.70
420;DHT22;42600;54.408;13.016;2022-07-29T00:30:58;13.30;92.70
420;DHT22;42600;54.408;13.016;2022-07-29T00:33:27;13.20;92.70
420;DHT22;42600;54.408;13.016;2022-07-29T00:35:56;13.30;91.00
420;DHT22;42600;54.408;13.016;2022-07-29T00:38:22;13.30;92.70
420;DHT22;42600;54.408;13.016;2022-07-29T00:40:52;13.30;92.70
420;DHT22;42600;54.408;13.016;2022-07-29T00:43:20;13.30;92.70
420;DHT22;42600;54.408;13.016;2022-07-29T00:46:00;13.30;92.70
420;DHT22;42600;54.408;13.016;2022-07-29T00:48:27;13.30;92.70
420;DHT22;42600;54.408;13.016;2022-07-29T00:50:57;13.40;92.70
420;DHT22;42600;54.408;13.016;2022-07-29T00:53:25;13.40;92.70
420;DHT22;42600;54.408;13.016;2022-07-29T00:55:53;13.40;92.70
420;DHT22;42600;54.408;13.016;2022-07-29T00:58:21;13.40;92.70
420;DHT22;42600;54.408;13.016;2022-07-29T01:00:49;13.40;92.70
420;DHT22;42600;54.408;13.016;2022-07-29T01:03:18;13.40;92.70
420;DHT22;42600;54.408;13.016;2022-07-29T01:05:48;13.40;92.70
420;DHT22;42600;54.408;13.016;2022-07-29T01:08:17;13.40;92.70
420;DHT22;42600;54.408;13.016;2022-07-29T01:10:46;13.40;92.70
420;DHT22;42600;54.408;13.016;2022-07-29T01:13:16;13.40;92.70
420;DHT22;42600;54.408;13.016;2022-07-29T01:15:58;13.40;92.70
420;DHT22;42600;54.408;13.016;2022-07-29T01:18:31;13.40;92.70
420;DHT22;42600;54.408;13.016;2022-07-29T01:21:24;13.40;92.70
420;DHT22;42600;54.408;13.016;2022-07-29T01:24:11;13.30;92.70
420;DHT22;42600;54.408;13.016;2022-07-29T01:26:45;13.30;92.70
420;DHT22;42600;54.408;13.016;2022-07-29T01:29:27;13.20;92.70
420;DHT22;42600;54.408;13.016;2022-07-29T01:32:03;13.10;92.70
420;DHT22;42600;54.408;13.016;2022-07-29T01:34:42;13.10;92.70
420;DHT22;42600;54.408;13.016;2022-07-29T01:37:19;13.10;92.70
420;DHT22;42600;54.408;13.016;2022-07-29T01:39:53;13.20;92.70
420;DHT22;42600;54.408;13.016;2022-07-29T01:42:27;13.30;92.70
420;DHT22;42600;54.408;13.016;2022-07-29T01:45:03;13.40;92.70
420;DHT22;42600;54.408;13.016;2022-07-29T01:47:37;13.50;92.70
420;DHT22;42600;54.408;13.016;2022-07-29T01:50:11;13.60;92.70
420;DHT22;42600;54.408;13.016;2022-07-29T01:52:54;13.70;92.70
420;DHT22;42600;54.408;13.016;2022-07-29T01:55:29;13.70;92.70
420;DHT22;42600;54.408;13.016;2022-07-29T01:58:04;13.70;92.70
420;DHT22;42600;54.408;13.016;2022-07-29T02:00:39;13.70;92.70
420;DHT22;42600;54.408;13.016;2022-07-29T02:03:12;13.80;92.70
420;DHT22;42600;54.408;13.016;2022-07-29T02:05:44;13.80;92.70
420;DHT22;42600;54.408;13.016;2022-07-29T02:08:22;13.80;92.70
420;DHT22;42600;54.408;13.016;2022-07-29T02:10:55;13.80;92.70
420;DHT22;42600;54.408;13.016;2022-07-29T02:13:24;13.90;92.70
420;DHT22;42600;54.408;13.016;2022-07-29T02:16:02;13.90;92.70
420;DHT22;42600;54.408;13.016;2022-07-29T02:18:31;13.90;92.70
420;DHT22;42600;54.408;13.016;2022-07-29T02:21:01;13.90;92.70
420;DHT22;42600;54.408;13.016;2022-07-29T02:23:31;13.90;92.70
420;DHT22;42600;54.408;13.016;2022-07-29T02:25:59;13.90;92.70
420;DHT22;42600;54.408;13.016;2022-07-29T02:28:29;14.00;92.70
420;DHT22;42600;54.408;13.016;2022-07-29T02:31:00;14.00;92.70
420;DHT22;42600;54.408;13.016;2022-07-29T02:33:30;14.00;92.70
420;DHT22;42600;54.408;13.016;2022-07-29T02:36:01;14.00;92.70
420;DHT22;42600;54.408;13.016;2022-07-29T02:38:35;14.00;92.70
420;DHT22;42600;54.408;13.016;2022-07-29T02:41:20;14.00;92.70
420;DHT22;42600;54.408;13.016;2022-07-29T02:43:50;14.00;92.70
420;DHT22;42600;54.408;13.016;2022-07-29T02:46:26;14.10;92.70
420;DHT22;42600;54.408;13.016;2022-07-29T02:48:58;14.10;92.70
420;DHT22;42600;54.408;13.016;2022-07-29T02:51:32;14.10;92.70
420;DHT22;42600;54.408;13.016;2022-07-29T02:54:02;14.10;92.70
420;DHT22;42600;54.408;13.016;2022-07-29T02:56:33;14.10;92.70
420;DHT22;42600;54.408;13.016;2022-07-29T02:59:05;14.10;92.70
420;DHT22;42600;54.408;13.016;2022-07-29T03:01:40;14.10;92.70
420;DHT22;42600;54.408;13.016;2022-07-29T03:04:11;14.10;92.70
420;DHT22;42600;54.408;13.016;2022-07-29T03:06:53;14.10;92.70
420;DHT22;42600;54.408;13.016;2022-07-29T03:09:31;14.00;92.70
420;DHT22;42600;54.408;13.016;2022-07-29T03:12:05;14.10;92.70
420;DHT22;42600;54.408;13.016;2022-07-29T03:14:37;14.10;92.70
420;DHT22;42600;54.408;13.016;2022-07-29T03:17:22;14.10;92.70
420;DHT22;42600;54.408;13.016;2022-07-29T03:19:54;14.10;92.70
420;DHT22;42600;54.408;13.016;2022-07-29T03:22:22;14.10;92.70
420;DHT22;42600;54.408;13.016;2022-07-29T03:24:49;14.10;92.70
420;DHT22;42600;54.408;13.016;2022-07-29T03:27:16;14.10;92.70
420;DHT22;42600;54.408;13.016;2022-07-29T03:29:44;14.10;92.70
420;DHT22;42600;54.408;13.016;2022-07-29T03:32:11;14.10;92.70
420;DHT22;42600;54.408;13.016;2022-07-29T03:34:41;14.20;92.70
420;DHT22;42600;54.408;13.016;2022-07-29T03:37:08;14.20;92.70
420;DHT22;42600;54.408;13.016;2022-07-29T03:39:49;14.20;92.70
420;DHT22;42600;54.408;13.016;2022-07-29T03:42:21;14.20;92.70
420;DHT22;42600;54.408;13.016;2022-07-29T03:45:03;14.20;92.70
420;DHT22;42600;54.408;13.016;2022-07-29T03:47:31;14.20;92.70
420;DHT22;42600;54.408;13.016;2022-07-29T03:50:06;14.20;92.70
420;DHT22;42600;54.408;13.016;2022-07-29T03:52:35;14.30;92.70
420;DHT22;42600;54.408;13.016;2022-07-29T03:55:04;14.30;92.70
420;DHT22;42600;54.408;13.016;2022-07-29T03:57:34;14.30;92.70
420;DHT22;42600;54.408;13.016;2022-07-29T04:00:04;14.30;92.70
420;DHT22;42600;54.408;13.016;2022-07-29T04:02:32;14.40;92.70
420;DHT22;42600;54.408;13.016;2022-07-29T04:04:59;14.50;92.70
420;DHT22;42600;54.408;13.016;2022-07-29T04:07:27;14.60;92.70
420;DHT22;42600;54.408;13.016;2022-07-29T04:09:55;14.70;92.70
420;DHT22;42600;54.408;13.016;2022-07-29T04:12:21;14.80;92.70
420;DHT22;42600;54.408;13.016;2022-07-29T04:14:48;14.80;92.70
420;DHT22;42600;54.408;13.016;2022-07-29T04:17:15;14.90;92.70
420;DHT22;42600;54.408;13.016;2022-07-29T04:19:42;15.00;92.70
420;DHT22;42600;54.408;13.016;2022-07-29T04:22:08;15.10;92.70
420;DHT22;42600;54.408;13.016;2022-07-29T04:24:37;15.20;92.70
420;DHT22;42600;54.408;13.016;2022-07-29T04:27:03;15.20;92.70
420;DHT22;42600;54.408;13.016;2022-07-29T04:29:30;15.30;92.70
420;DHT22;42600;54.408;13.016;2022-07-29T04:31:57;15.30;92.70
420;DHT22;42600;54.408;13.016;2022-07-29T04:34:23;15.40;92.70
420;DHT22;42600;54.408;13.016;2022-07-29T04:36:50;15.50;92.70
420;DHT22;42600;54.408;13.016;2022-07-29T04:39:17;15.50;92.70
420;DHT22;42600;54.408;13.016;2022-07-29T04:41:45;15.60;92.70
420;DHT22;42600;54.408;13.016;2022-07-29T04:44:12;15.70;92.70
420;DHT22;42600;54.408;13.016;2022-07-29T04:46:39;15.70;92.70
420;DHT22;42600;54.408;13.016;2022-07-29T04:49:06;15.70;92.70
420;DHT22;42600;54.408;13.016;2022-07-29T04:51:33;15.90;92.70
420;DHT22;42600;54.408;13.016;2022-07-29T04:53:59;16.00;92.70
420;DHT22;42600;54.408;13.016;2022-07-29T04:56:26;16.00;92.70
420;DHT22;42600;54.408;13.016;2022-07-29T04:58:55;16.20;92.70
420;DHT22;42600;54.408;13.016;2022-07-29T05:01:21;16.30;92.70
420;DHT22;42600;54.408;13.016;2022-07-29T05:03:48;16.40;92.40
420;DHT22;42600;54.408;13.016;2022-07-29T05:06:15;16.50;92.70
420;DHT22;42600;54.408;13.016;2022-07-29T05:08:41;16.50;92.10
420;DHT22;42600;54.408;13.016;2022-07-29T05:11:08;16.60;91.90
420;DHT22;42600;54.408;13.016;2022-07-29T05:13:35;16.60;91.80
420;DHT22;42600;54.408;13.016;2022-07-29T05:16:04;16.70;91.60
420;DHT22;42600;54.408;13.016;2022-07-29T05:18:31;16.80;92.00
420;DHT22;42600;54.408;13.016;2022-07-29T05:20:57;16.90;91.50
420;DHT22;42600;54.408;13.016;2022-07-29T05:23:24;17.00;92.20
420;DHT22;42600;54.408;13.016;2022-07-29T05:25:51;17.10;91.50
420;DHT22;42600;54.408;13.016;2022-07-29T05:28:18;17.20;91.70
420;DHT22;42600;54.408;13.016;2022-07-29T05:30:44;17.30;91.80
420;DHT22;42600;54.408;13.016;2022-07-29T05:33:13;17.30;90.50
420;DHT22;42600;54.408;13.016;2022-07-29T05:35:39;17.30;90.20
420;DHT22;42600;54.408;13.016;2022-07-29T05:38:06;17.30;91.00
420;DHT22;42600;54.408;13.016;2022-07-29T05:40:33;17.40;89.90
420;DHT22;42600;54.408;13.016;2022-07-29T05:42:59;17.60;88.10
420;DHT22;42600;54.408;13.016;2022-07-29T05:45:26;17.70;89.00
420;DHT22;42600;54.408;13.016;2022-07-29T05:47:53;17.80;88.10
420;DHT22;42600;54.408;13.016;2022-07-29T05:50:21;17.80;88.50
420;DHT22;42600;54.408;13.016;2022-07-29T05:52:47;17.70;88.70
420;DHT22;42600;54.408;13.016;2022-07-29T05:55:14;17.70;88.70
420;DHT22;42600;54.408;13.016;2022-07-29T05:57:41;17.80;88.20
420;DHT22;42600;54.408;13.016;2022-07-29T06:00:09;17.90;88.70
420;DHT22;42600;54.408;13.016;2022-07-29T06:02:36;17.90;89.10
420;DHT22;42600;54.408;13.016;2022-07-29T06:05:03;17.80;88.80
420;DHT22;42600;54.408;13.016;2022-07-29T06:07:31;17.90;88.60
420;DHT22;42600;54.408;13.016;2022-07-29T06:09:58;18.00;87.50
420;DHT22;42600;54.408;13.016;2022-07-29T06:12:24;18.10;88.10
420;DHT22;42600;54.408;13.016;2022-07-29T06:14:51;18.10;87.60
420;DHT22;42600;54.408;13.016;2022-07-29T06:17:18;18.10;88.10
420;DHT22;42600;54.408;13.016;2022-07-29T06:19:45;18.10;88.50
420;DHT22;42600;54.408;13.016;2022-07-29T06:22:11;18.20;88.90
420;DHT22;42600;54.408;13.016;2022-07-29T06:24:39;18.30;88.40
420;DHT22;42600;54.408;13.016;2022-07-29T06:27:09;18.40;87.60
420;DHT22;42600;54.408;13.016;2022-07-29T06:29:35;18.50;88.00
420;DHT22;42600;54.408;13.016;2022-07-29T06:32:02;18.50;87.50
420;DHT22;42600;54.408;13.016;2022-07-29T06:34:29;18.70;87.10
420;DHT22;42600;54.408;13.016;2022-07-29T06:36:56;18.70;87.30
420;DHT22;42600;54.408;13.016;2022-07-29T06:39:22;18.70;87.90
420;DHT22;42600;54.408;13.016;2022-07-29T06:41:50;18.80;87.40
420;DHT22;42600;54.408;13.016;2022-07-29T06:44:17;18.90;87.10
420;DHT22;42600;54.408;13.016;2022-07-29T06:46:58;19.00;87.20
420;DHT22;42600;54.408;13.016;2022-07-29T06:49:25;19.00;87.30
420;DHT22;42600;54.408;13.016;2022-07-29T06:51:53;19.10;86.60
420;DHT22;42600;54.408;13.016;2022-07-29T06:54:19;19.10;87.50
420;DHT22;42600;54.408;13.016;2022-07-29T06:56:47;19.10;87.10
420;DHT22;42600;54.408;13.016;2022-07-29T06:59:15;19.10;87.80
420;DHT22;42600;54.408;13.016;2022-07-29T07:01:42;19.20;87.20
420;DHT22;42600;54.408;13.016;2022-07-29T07:04:10;19.10;87.30
420;DHT22;42600;54.408;13.016;2022-07-29T07:06:37;19.10;87.50
420;DHT22;42600;54.408;13.016;2022-07-29T07:09:04;19.20;87.40
420;DHT22;42600;54.408;13.016;2022-07-29T07:11:31;19.20;87.10
420;DHT22;42600;54.408;13.016;2022-07-29T07:13:57;19.20;85.90
420;DHT22;42600;54.408;13.016;2022-07-29T07:16:25;19.30;86.80
420;DHT22;42600;54.408;13.016;2022-07-29T07:18:53;19.50;86.70
420;DHT22;42600;54.408;13.016;2022-07-29T07:21:19;19.60;86.40
420;DHT22;42600;54.408;13.016;2022-07-29T07:23:46;19.70;85.50
420;DHT22;42600;54.408;13.016;2022-07-29T07:26:13;19.80;86.00
420;DHT22;42600;54.408;13.016;2022-07-29T07:28:39;19.80;85.90
420;DHT22;42600;54.408;13.016;2022-07-29T07:31:06;19.70;86.60
420;DHT22;42600;54.408;13.016;2022-07-29T07:33:34;19.70;86.00
420;DHT22;42600;54.408;13.016;2022-07-29T07:36:01;19.70;86.20
420;DHT22;42600;54.408;13.016;2022-07-29T07:38:28;19.60;86.90
420;DHT22;42600;54.408;13.016;2022-07-29T07:40:54;19.60;86.30
420;DHT22;42600;54.408;13.016;2022-07-29T07:43:21;19.60;86.40
420;DHT22;42600;54.408;13.016;2022-07-29T07:45:48;19.60;86.90
420;DHT22;42600;54.408;13.016;2022-07-29T07:48:14;19.60;87.40
420;DHT22;42600;54.408;13.016;2022-07-29T07:50:42;19.70;86.80
420;DHT22;42600;54.408;13.016;2022-07-29T07:53:09;19.70;86.20
420;DHT22;42600;54.408;13.016;2022-07-29T07:55:40;19.70;87.00
420;DHT22;42600;54.408;13.016;2022-07-29T07:58:06;19.70;86.90
420;DHT22;42600;54.408;13.016;2022-07-29T08:00:33;19.80;87.20
420;DHT22;42600;54.408;13.016;2022-07-29T08:03:00;19.80;86.70
420;DHT22;42600;54.408;13.016;2022-07-29T08:05:27;19.90;86.90
420;DHT22;42600;54.408;13.016;2022-07-29T08:07:56;20.00;86.10
420;DHT22;42600;54.408;13.016;2022-07-29T08:10:22;20.00;85.80
420;DHT22;42600;54.408;13.016;2022-07-29T08:13:08;20.20;85.30
420;DHT22;42600;54.408;13.016;2022-07-29T08:15:36;20.30;85.00
420;DHT22;42600;54.408;13.016;2022-07-29T08:18:05;20.30;85.40
420;DHT22;42600;54.408;13.016;2022-07-29T08:20:32;20.40;85.60
420;DHT22;42600;54.408;13.016;2022-07-29T08:23:02;20.50;84.10
420;DHT22;42600;54.408;13.016;2022-07-29T08:25:29;20.50;85.40
420;DHT22;42600;54.408;13.016;2022-07-29T08:27:56;20.60;85.40
420;DHT22;42600;54.408;13.016;2022-07-29T08:30:23;20.70;85.40
420;DHT22;42600;54.408;13.016;2022-07-29T08:32:50;20.80;84.60
420;DHT22;42600;54.408;13.016;2022-07-29T08:35:18;20.80;84.30
420;DHT22;42600;54.408;13.016;2022-07-29T08:37:45;20.90;85.00
420;DHT22;42600;54.408;13.016;2022-07-29T08:40:13;20.80;84.00
420;DHT22;42600;54.408;13.016;2022-07-29T08:42:40;20.90;84.80
420;DHT22;42600;54.408;13.016;2022-07-29T08:45:08;21.10;83.00
420;DHT22;42600;54.408;13.016;2022-07-29T08:47:35;21.10;84.00
420;DHT22;42600;54.408;13.016;2022-07-29T08:50:05;21.30;83.30
420;DHT22;42600;54.408;13.016;2022-07-29T08:52:35;21.40;83.30
420;DHT22;42600;54.408;13.016;2022-07-29T08:55:03;21.50;82.60
420;DHT22;42600;54.408;13.016;2022-07-29T08:57:33;21.40;82.20
420;DHT22;42600;54.408;13.016;2022-07-29T09:00:03;21.50;82.40
420;DHT22;42600;54.408;13.016;2022-07-29T09:02:36;21.60;81.70
420;DHT22;42600;54.408;13.016;2022-07-29T09:05:06;21.80;81.70
420;DHT22;42600;54.408;13.016;2022-07-29T09:07:33;21.80;81.30
420;DHT22;42600;54.408;13.016;2022-07-29T09:10:00;22.00;81.20
420;DHT22;42600;54.408;13.016;2022-07-29T09:12:28;22.00;79.20
420;DHT22;42600;54.408;13.016;2022-07-29T09:14:57;22.00;79.70
420;DHT22;42600;54.408;13.016;2022-07-29T09:17:39;22.10;79.70
420;DHT22;42600;54.408;13.016;2022-07-29T09:20:09;22.30;80.60
420;DHT22;42600;54.408;13.016;2022-07-29T09:22:36;22.40;79.60
420;DHT22;42600;54.408;13.016;2022-07-29T09:25:04;22.30;78.50
420;DHT22;42600;54.408;13.016;2022-07-29T09:27:31;22.40;79.50
420;DHT22;42600;54.408;13.016;2022-07-29T09:30:02;22.40;77.40
420;DHT22;42600;54.408;13.016;2022-07-29T09:32:30;22.20;76.90
420;DHT22;42600;54.408;13.016;2022-07-29T09:35:18;22.10;77.10
420;DHT22;42600;54.408;13.016;2022-07-29T09:37:46;22.10;79.00
420;DHT22;42600;54.408;13.016;2022-07-29T09:40:17;22.20;76.30
420;DHT22;42600;54.408;13.016;2022-07-29T09:42:45;22.10;77.50
420;DHT22;42600;54.408;13.016;2022-07-29T09:45:26;22.20;77.70
420;DHT22;42600;54.408;13.016;2022-07-29T09:47:53;22.30;76.60
420;DHT22;42600;54.408;13.016;2022-07-29T09:50:22;22.40;76.40
420;DHT22;42600;54.408;13.016;2022-07-29T09:52:52;22.50;76.40
420;DHT22;42600;54.408;13.016;2022-07-29T09:55:19;22.60;74.10
420;DHT22;42600;54.408;13.016;2022-07-29T09:57:46;22.50;74.00
420;DHT22;42600;54.408;13.016;2022-07-29T10:00:16;22.70;75.10
420;DHT22;42600;54.408;13.016;2022-07-29T10:02:44;22.80;75.80
420;DHT22;42600;54.408;13.016;2022-07-29T10:05:20;23.00;75.80
420;DHT22;42600;54.408;13.016;2022-07-29T10:07:48;22.80;75.30
420;DHT22;42600;54.408;13.016;2022-07-29T10:10:20;22.80;76.70
420;DHT22;42600;54.408;13.016;2022-07-29T10:12:52;22.90;76.20
420;DHT22;42600;54.408;13.016;2022-07-29T10:15:22;23.20;73.20
420;DHT22;42600;54.408;13.016;2022-07-29T10:17:49;23.30;73.70
420;DHT22;42600;54.408;13.016;2022-07-29T10:20:16;23.40;72.20
420;DHT22;42600;54.408;13.016;2022-07-29T10:22:43;23.20;73.90
420;DHT22;42600;54.408;13.016;2022-07-29T10:25:12;23.30;74.80
420;DHT22;42600;54.408;13.016;2022-07-29T10:27:40;23.50;75.00
420;DHT22;42600;54.408;13.016;2022-07-29T10:30:08;23.40;76.10
420;DHT22;42600;54.408;13.016;2022-07-29T10:32:45;23.30;75.90
420;DHT22;42600;54.408;13.016;2022-07-29T10:35:27;23.20;76.10
420;DHT22;42600;54.408;13.016;2022-07-29T10:38:15;23.10;76.80
420;DHT22;42600;54.408;13.016;2022-07-29T10:40:53;23.00;77.40
420;DHT22;42600;54.408;13.016;2022-07-29T10:43:42;22.90;76.80
420;DHT22;42600;54.408;13.016;2022-07-29T10:46:10;22.80;77.30
420;DHT22;42600;54.408;13.016;2022-07-29T10:49:04;22.80;77.60
420;DHT22;42600;54.408;13.016;2022-07-29T10:51:52;22.70;78.10
420;DHT22;42600;54.408;13.016;2022-07-29T10:54:39;22.80;78.00
420;DHT22;42600;54.408;13.016;2022-07-29T10:57:14;22.70;78.30
420;DHT22;42600;54.408;13.016;2022-07-29T10:59:42;22.70;77.60
420;DHT22;42600;54.408;13.016;2022-07-29T11:02:43;22.80;77.50
420;DHT22;42600;54.408;13.016;2022-07-29T11:05:12;22.70;77.80
420;DHT22;42600;54.408;13.016;2022-07-29T11:10:28;22.80;77.10
420;DHT22;42600;54.408;13.016;2022-07-29T11:12:54;22.60;76.10
420;DHT22;42600;54.408;13.016;2022-07-29T11:15:22;22.60;77.60
420;DHT22;42600;54.408;13.016;2022-07-29T11:18:06;22.70;77.20
420;DHT22;42600;54.408;13.016;2022-07-29T11:20:39;22.80;77.30
420;DHT22;42600;54.408;13.016;2022-07-29T11:23:26;22.80;75.90
420;DHT22;42600;54.408;13.016;2022-07-29T11:26:15;23.00;74.90
420;DHT22;42600;54.408;13.016;2022-07-29T11:28:54;22.90;75.90
420;DHT22;42600;54.408;13.016;2022-07-29T11:31:35;23.00;77.60
420;DHT22;42600;54.408;13.016;2022-07-29T11:34:18;23.10;76.90
420;DHT22;42600;54.408;13.016;2022-07-29T11:37:21;23.30;76.50
420;DHT22;42600;54.408;13.016;2022-07-29T11:40:10;23.40;76.30
420;DHT22;42600;54.408;13.016;2022-07-29T11:42:38;23.20;76.30
420;DHT22;42600;54.408;13.016;2022-07-29T11:45:07;23.30;77.50
420;DHT22;42600;54.408;13.016;2022-07-29T11:47:35;23.30;76.90
420;DHT22;42600;54.408;13.016;2022-07-29T11:50:04;23.30;74.30
420;DHT22;42600;54.408;13.016;2022-07-29T11:52:35;23.30;76.90
420;DHT22;42600;54.408;13.016;2022-07-29T11:55:05;23.30;75.00
420;DHT22;42600;54.408;13.016;2022-07-29T11:57:34;23.20;75.50
420;DHT22;42600;54.408;13.016;2022-07-29T12:00:02;23.20;75.60
420;DHT22;42600;54.408;13.016;2022-07-29T12:02:38;23.20;76.00
420;DHT22;42600;54.408;13.016;2022-07-29T12:05:08;23.20;77.00
420;DHT22;42600;54.408;13.016;2022-07-29T12:07:36;23.00;76.70
420;DHT22;42600;54.408;13.016;2022-07-29T12:10:04;23.00;77.40
420;DHT22;42600;54.408;13.016;2022-07-29T12:12:31;23.10;78.00
420;DHT22;42600;54.408;13.016;2022-07-29T12:15:03;23.20;78.00
420;DHT22;42600;54.408;13.016;2022-07-29T12:17:36;23.10;77.00
420;DHT22;42600;54.408;13.016;2022-07-29T12:20:05;23.00;78.70
420;DHT22;42600;54.408;13.016;2022-07-29T12:22:33;23.00;78.30
420;DHT22;42600;54.408;13.016;2022-07-29T12:25:05;22.90;79.40
420;DHT22;42600;54.408;13.016;2022-07-29T12:27:33;22.80;78.80
420;DHT22;42600;54.408;13.016;2022-07-29T12:30:01;22.70;79.30
420;DHT22;42600;54.408;13.016;2022-07-29T12:32:33;22.70;79.90
420;DHT22;42600;54.408;13.016;2022-07-29T12:35:02;22.50;80.20
420;DHT22;42600;54.408;13.016;2022-07-29T12:37:29;22.30;80.20
420;DHT22;42600;54.408;13.016;2022-07-29T12:39:57;22.20;80.90
420;DHT22;42600;54.408;13.016;2022-07-29T12:42:25;22.00;81.40
420;DHT22;42600;54.408;13.016;2022-07-29T12:44:52;21.90;82.20
420;DHT22;42600;54.408;13.016;2022-07-29T12:47:19;21.70;81.80
420;DHT22;42600;54.408;13.016;2022-07-29T12:49:46;21.70;82.40
420;DHT22;42600;54.408;13.016;2022-07-29T12:52:27;21.60;82.80
420;DHT22;42600;54.408;13.016;2022-07-29T12:54:54;21.50;82.30
420;DHT22;42600;54.408;13.016;2022-07-29T12:57:21;21.40;83.60
420;DHT22;42600;54.408;13.016;2022-07-29T13:00:08;21.30;83.90
420;DHT22;42600;54.408;13.016;2022-07-29T13:02:38;21.30;83.80
420;DHT22;42600;54.408;13.016;2022-07-29T13:05:06;21.30;84.50
420;DHT22;42600;54.408;13.016;2022-07-29T13:07:35;21.30;84.00
420;DHT22;42600;54.408;13.016;2022-07-29T13:10:13;21.30;84.70
420;DHT22;42600;54.408;13.016;2022-07-29T13:13:02;21.30;84.80
420;DHT22;42600;54.408;13.016;2022-07-29T13:15:31;21.30;83.80
420;DHT22;42600;54.408;13.016;2022-07-29T13:17:58;21.30;84.30
420;DHT22;42600;54.408;13.016;2022-07-29T13:20:25;21.20;83.90
420;DHT22;42600;54.408;13.016;2022-07-29T13:22:55;21.20;84.30
420;DHT22;42600;54.408;13.016;2022-07-29T13:25:26;21.20;84.20
420;DHT22;42600;54.408;13.016;2022-07-29T13:27:52;21.30;85.70
420;DHT22;42600;54.408;13.016;2022-07-29T13:30:21;21.30;85.50
420;DHT22;42600;54.408;13.016;2022-07-29T13:32:50;21.30;84.60
420;DHT22;42600;54.408;13.016;2022-07-29T13:35:19;21.30;84.50
420;DHT22;42600;54.408;13.016;2022-07-29T13:37:48;21.20;84.50
420;DHT22;42600;54.408;13.016;2022-07-29T13:40:15;21.20;84.80
420;DHT22;42600;54.408;13.016;2022-07-29T13:42:42;21.10;85.10
420;DHT22;42600;54.408;13.016;2022-07-29T13:45:10;21.10;85.10
420;DHT22;42600;54.408;13.016;2022-07-29T13:47:37;21.10;85.40
420;DHT22;42600;54.408;13.016;2022-07-29T13:50:07;21.10;84.90
420;DHT22;42600;54.408;13.016;2022-07-29T13:52:35;21.20;85.50
420;DHT22;42600;54.408;13.016;2022-07-29T13:55:03;21.10;85.60
420;DHT22;42600;54.408;13.016;2022-07-29T13:57:30;21.10;85.00
420;DHT22;42600;54.408;13.016;2022-07-29T13:59:57;21.10;85.70
420;DHT22;42600;54.408;13.016;2022-07-29T14:02:23;21.10;86.10
420;DHT22;42600;54.408;13.016;2022-07-29T14:04:50;21.10;86.50
420;DHT22;42600;54.408;13.016;2022-07-29T14:07:18;21.10;86.20
420;DHT22;42600;54.408;13.016;2022-07-29T14:09:45;21.10;86.20
420;DHT22;42600;54.408;13.016;2022-07-29T14:12:11;21.20;86.30
420;DHT22;42600;54.408;13.016;2022-07-29T14:14:38;21.20;86.80
420;DHT22;42600;54.408;13.016;2022-07-29T14:17:05;21.20;86.10
420;DHT22;42600;54.408;13.016;2022-07-29T14:19:32;21.30;85.40
420;DHT22;42600;54.408;13.016;2022-07-29T14:22:01;21.40;85.70
420;DHT22;42600;54.408;13.016;2022-07-29T14:24:30;21.50;85.90
420;DHT22;42600;54.408;13.016;2022-07-29T14:26:56;21.50;85.60
420;DHT22;42600;54.408;13.016;2022-07-29T14:29:23;21.40;85.20
420;DHT22;42600;54.408;13.016;2022-07-29T14:31:50;21.50;86.30
420;DHT22;42600;54.408;13.016;2022-07-29T14:34:16;21.50;85.90
420;DHT22;42600;54.408;13.016;2022-07-29T14:36:43;21.50;85.70
420;DHT22;42600;54.408;13.016;2022-07-29T14:39:09;21.50;85.40
420;DHT22;42600;54.408;13.016;2022-07-29T14:41:37;21.50;85.90
420;DHT22;42600;54.408;13.016;2022-07-29T14:44:04;21.60;86.10
420;DHT22;42600;54.408;13.016;2022-07-29T14:46:30;21.60;86.20
420;DHT22;42600;54.408;13.016;2022-07-29T14:48:57;21.60;86.10
420;DHT22;42600;54.408;13.016;2022-07-29T14:51:24;21.70;85.10
420;DHT22;42600;54.408;13.016;2022-07-29T14:53:50;21.70;84.40
420;DHT22;42600;54.408;13.016;2022-07-29T14:56:17;21.80;84.90
420;DHT22;42600;54.408;13.016;2022-07-29T14:58:45;21.70;84.70
420;DHT22;42600;54.408;13.016;2022-07-29T15:01:11;21.80;85.40
420;DHT22;42600;54.408;13.016;2022-07-29T15:03:38;21.80;84.60
420;DHT22;42600;54.408;13.016;2022-07-29T15:06:04;21.80;84.90
420;DHT22;42600;54.408;13.016;2022-07-29T15:08:31;21.80;84.70
420;DHT22;42600;54.408;13.016;2022-07-29T15:10:58;21.90;84.90
420;DHT22;42600;54.408;13.016;2022-07-29T15:13:25;21.80;84.80
420;DHT22;42600;54.408;13.016;2022-07-29T15:15:53;21.80;83.90
420;DHT22;42600;54.408;13.016;2022-07-29T15:18:20;21.70;83.80
420;DHT22;42600;54.408;13.016;2022-07-29T15:20:46;21.80;84.00
420;DHT22;42600;54.408;13.016;2022-07-29T15:23:13;21.80;84.10
420;DHT22;42600;54.408;13.016;2022-07-29T15:25:40;21.80;85.30
420;DHT22;42600;54.408;13.016;2022-07-29T15:28:06;21.80;84.80
420;DHT22;42600;54.408;13.016;2022-07-29T15:30:33;21.90;85.10
420;DHT22;42600;54.408;13.016;2022-07-29T15:33:03;21.90;85.10
420;DHT22;42600;54.408;13.016;2022-07-29T15:35:29;22.00;84.70
420;DHT22;42600;54.408;13.016;2022-07-29T15:37:56;22.00;85.00
420;DHT22;42600;54.408;13.016;2022-07-29T15:40:22;22.00;84.20
420;DHT22;42600;54.408;13.016;2022-07-29T15:42:49;21.90;84.90
420;DHT22;42600;54.408;13.016;2022-07-29T15:45:16;21.80;84.80
420;DHT22;42600;54.408;13.016;2022-07-29T15:47:42;21.70;84.70
420;DHT22;42600;54.408;13.016;2022-07-29T15:50:10;21.70;84.30
420;DHT22;42600;54.408;13.016;2022-07-29T15:52:40;21.60;84.30
420;DHT22;42600;54.408;13.016;2022-07-29T15:55:07;21.60;85.00
420;DHT22;42600;54.408;13.016;2022-07-29T15:57:34;21.70;84.90
420;DHT22;42600;54.408;13.016;2022-07-29T16:00:01;21.60;85.90
420;DHT22;42600;54.408;13.016;2022-07-29T16:02:28;21.50;86.40
420;DHT22;42600;54.408;13.016;2022-07-29T16:04:54;21.50;85.60